• Join FlightAware (Why Join?)
  • Login
  • US Flag 
01:35AM EDT


 

Airport Tracker/Info


-or-


 

Live Flight TrackerFlight Track Log ✈ SWA554 ✈ 09-Apr-2013 ✈ KBWI - KMHT

Flight Track Log - Related Links

Times and Time Zones

All times are in EDT time to prevent confusion due to time zone crossing. See the SWA554 flight status page for this flight to view local times or setup timezone preferences in your user account.

Time Position Orientation Groundspeed Altitude Reporting Facility
EDT Latitude Longitude Course Direction KTS MPH feet Rate Location/Type
05:45PM 39.1167 -76.7167 131° Southeast 267 307 3,500  Level Potomac TRACON
05:46PM 39.1167 -76.6167 90° East 288 331 6,700 2,640 Climbing Potomac TRACON
05:49PM 39.1400 -76.3783 83° East 330 380 12,000 2,700 Climbing Washington Center
05:50PM 39.1667 -76.6363 270° West  Level FlightAware Approximate
05:50PM 39.1514 -76.2392 84° East 361 415 15,400  Level Washington Center
05:51PM 39.1667 -76.0922 82° East 391 450 18,100 2,580 Climbing Washington Center
05:52PM 39.1858 -75.9425 81° East 409 471 20,600 2,400 Climbing Washington Center
05:53PM 39.2467 -75.8114 59° Northeast 424 488 22,900 1,200 Climbing Washington Center
05:54PM 39.3322 -75.6989 45° Northeast 415 478 23,000  Climbing Washington Center
05:55PM 39.4178 -75.5889 45° Northeast 422 486 23,000 60 Level Washington Center
05:56PM 39.5050 -75.4786 44° Northeast 428 493 23,200 1,140 Climbing Washington Center
05:57PM 39.5925 -75.3653 45° Northeast 428 493 25,400 2,040 Climbing Washington Center
05:58PM 39.6775 -75.2464 47° Northeast 435 501 27,400 1,800 Climbing Washington Center
05:59PM 39.7564 -75.1300 49° Northeast 455 524 29,000 720 Climbing Washington Center
06:00PM 39.8589 -74.9894 46° Northeast 455 524 29,000  Level New York Center
06:01PM 39.9467 -74.8622 48° Northeast 465 535 29,000  Level New York Center
06:02PM 40.0344 -74.7372 47° Northeast 465 535 29,000  Level New York Center
06:03PM 40.1331 -74.5936 48° Northeast 475 547 29,000  Level New York Center
06:04PM 40.2267 -74.4681 46° Northeast 470 541 29,000  Level New York Center
06:05PM 40.3258 -74.3619 39° Northeast 469 540 29,000  Level New York Center
06:06PM 40.4267 -74.2581 38° Northeast 464 534 29,000  Level New York Center
06:07PM 40.5447 -74.2150 15° North 433 498 29,000  Level New York Center
06:08PM 40.6642 -74.1936 North 428 493 29,000 -60 Level New York Center
06:09PM 40.7814 -74.1747 North 428 493 28,900 -360 Descending New York Center
06:11PM 41.0497 -74.1272 North 405 466 27,800 -600 Descending Boston Center
06:12PM 41.1586 -74.1053 North 405 466 27,000 -420 Descending Boston Center
06:14PM 41.2944 -74.0811 North 394 453 27,000  Level Boston Center
06:14PM 41.4072 -74.0564 North 388 447 27,000  Level Boston Center
06:15PM 41.5097 -74.0394 North 399 459 27,000  Level Boston Center
06:16PM 41.6203 -74.0231 North 404 465 27,000  Level Boston Center
06:18PM 41.7353 -74.0008 North 404 465 27,000  Level Boston Center
06:18PM 41.8586 -73.9758 North 411 473 27,000  Level Boston Center
06:19PM 41.9675 -73.9256 19° North 406 467 27,000  Level Boston Center
06:21PM 42.0403 -73.7903 54° Northeast 417 480 27,000 -360 Level Boston Center
06:22PM 42.1083 -73.6575 55° Northeast 444 511 26,300 -960 Descending Boston Center
06:22PM 42.1828 -73.5131 55° Northeast 450 518 25,200 -1,080 Descending Boston Center
06:23PM 42.2569 -73.3686 55° Northeast 456 525 24,200 -1,080 Descending Boston Center
06:24PM 42.3289 -73.2264 56° Northeast 443 510 23,100 -1,020 Descending Boston Center
06:25PM 42.3986 -73.0867 56° Northeast 453 521 22,200 -960 Descending Boston Center
06:27PM 42.4681 -72.9467 56° Northeast 447 514 21,200 -1,020 Descending Boston Center
06:28PM 42.5353 -72.8119 56° Northeast 436 502 20,200 -1,140 Descending Boston Center
06:28PM 42.6003 -72.6828 56° Northeast 424 488 19,000 -1,620 Descending Boston Center
06:29PM 42.6589 -72.5700 55° Northeast 416 479 17,100 -2,040 Descending Boston Center
06:30PM 42.7214 -72.4428 56° Northeast 416 479 14,900 -2,160 Descending Boston Center
06:32PM 42.7817 -72.3183 57° Northeast 411 473 12,800 -2,160 Descending Boston Center
06:32PM 42.8022 -72.1769 79° East 373 429 10,700 -1,500 Descending Boston Center
06:33PM 42.8103 -72.0297 86° East 366 421 9,900 -960 Descending Boston Center
06:34PM 42.8014 -71.9167 96° East 337 388 8,800 -1,320 Descending Boston Center
06:36PM 42.7883 -71.7839 98° East 326 375 7,300 -1,320 Descending Boston Center
06:36PM 42.7772 -71.6792 98° East 316 364 6,300 -780 Descending Boston Center
06:37PM 42.7658 -71.5633 98° East 293 337 5,800 -660 Descending Boston Center
06:38PM 42.7569 -71.4703 97° East 261 300 5,000 -1,020 Descending Boston Center
06:39PM 42.7581 -71.3853 89° East 229 264 3,800 -1,320 Descending Boston Center
06:40PM 42.8058 -71.3647 18° North 165 190 2,400 -960 Descending Boston Center
06:41PM 42.8478 -71.3811 344° North 146 168 1,900 -720 Descending Boston Center
06:42PM 42.8833 -71.4058 333° Northwest 151 174 1,000 -840 Descending Boston Center
06:44PM 42.9189 -71.4281 335° Northwest 145 167 300 -360 Descending Boston Center
06:45PM 42.9525 -71.4528 332° Northwest 145 167 300 4,380 Level Boston Center
06:45PM 42.9883 -71.4808 330° Northwest 145 167 9,000 4,380 Climbing Boston Center
06:46PM 43.0261 -71.5086 332° Northwest 145 167 9,000  Level Boston Center
06:48PM 42.9328 -71.4358 160° South  Level Estimated
06:55PM 42.9328 -71.4358 160° South  Level Estimated
06:56PM 42.9328 -71.4358 160° South  Level Estimated
06:57PM 42.9328 -71.4358 160° South  Level Estimated
06:58PM 42.9328 -71.4358 160° South  Level Estimated
06:59PM 42.9328 -71.4358 160° South  Level Estimated
07:00PM 42.9328 -71.4358 160° South  Level Estimated
07:01PM 42.9328 -71.4358 160° South  Level Estimated
07:02PM 42.9328 -71.4358 160° South  Level Estimated